Time;durP1;ratioP1;P1;durP2;ratioP2;P2;SDS_P1;SDS_P2;PMS_P1;PMS_P2;Temp;Humidity;BMP_temperature;BMP_pressure;BME280_temperature;BME280_humidity;BME280_pressure;Samples;Min_cycle;Max_cycle;Signal;HPM_P1;HPM_P2
2021/05/02 00:00:49;;;;;;;7.30;1.73;;;;;;;18.60;59.03;92698.63;5092483;28;20044;-84
2021/05/02 00:03:15;;;;;;;7.55;1.80;;;;;;;18.62;59.40;92705.09;5092576;28;20513;-84
2021/05/02 00:05:42;;;;;;;3.47;1.55;;;;;;;18.49;59.14;92677.88;5092338;28;20052;-84
2021/05/02 00:08:08;;;;;;;11.38;1.83;;;;;;;18.58;59.73;92682.47;5092330;28;20047;-85
2021/05/02 00:10:35;;;;;;;9.02;2.58;;;;;;;18.53;59.57;92680.72;5092224;28;20502;-84
2021/05/02 00:13:03;;;;;;;7.25;1.73;;;;;;;18.45;60.18;92670.88;5092229;28;20048;-84
2021/05/02 00:15:31;;;;;;;3.70;1.80;;;;;;;18.40;60.80;92664.69;5092332;28;20503;-83
2021/05/02 00:17:59;;;;;;;8.30;1.88;;;;;;;18.30;61.24;92667.34;5092429;28;20048;-83
2021/05/02 00:20:28;;;;;;;7.18;1.85;;;;;;;18.32;61.89;92670.44;5092384;28;20403;-84
2021/05/02 00:22:56;;;;;;;4.38;2.20;;;;;;;18.27;62.10;92670.47;5091892;28;20044;-84
2021/05/02 00:25:24;;;;;;;3.65;1.48;;;;;;;18.18;62.48;92664.31;5091923;28;20059;-84
2021/05/02 00:27:51;;;;;;;4.65;1.92;;;;;;;18.07;63.47;92653.19;5092050;28;20470;-84
2021/05/02 00:30:20;;;;;;;33.47;2.28;;;;;;;17.97;63.99;92649.59;5092179;28;20055;-85
2021/05/02 00:32:49;;;;;;;3.35;1.58;;;;;;;17.86;64.58;92646.28;5092121;28;20040;-85
2021/05/02 00:35:17;;;;;;;4.35;1.70;;;;;;;17.86;63.46;92661.09;5091703;28;20056;-85
2021/05/02 00:37:43;;;;;;;4.78;1.80;;;;;;;17.77;62.76;92645.28;5091827;28;20557;-85
2021/05/02 00:40:12;;;;;;;6.47;1.88;;;;;;;17.81;64.48;92663.72;5091741;28;20040;-84
2021/05/02 00:42:48;;;;;;;4.00;1.33;;;;;;;17.85;61.96;92659.53;5091647;28;20085;-85
2021/05/02 00:45:24;;;;;;;6.22;2.08;;;;;;;17.79;63.30;92651.00;5091644;28;20044;-83
2021/05/02 00:47:54;;;;;;;5.60;1.85;;;;;;;17.80;62.62;92647.34;5091788;28;20047;-83
2021/05/02 00:50:28;;;;;;;5.38;1.67;;;;;;;17.73;63.76;92642.44;5091504;28;20056;-83
2021/05/02 00:53:16;;;;;;;8.20;1.27;;;;;;;17.74;64.76;92636.22;5091613;28;20407;-83
2021/05/02 00:55:47;;;;;;;6.15;1.45;;;;;;;17.46;65.86;92635.81;5091790;28;20060;-83
2021/05/02 00:58:31;;;;;;;5.45;1.58;;;;;;;17.42;65.88;92647.81;5091336;28;20051;-83
2021/05/02 01:01:00;;;;;;;10.40;2.25;;;;;;;17.30;67.10;92650.69;5091562;28;20048;-83
2021/05/02 01:03:31;;;;;;;8.32;1.85;;;;;;;17.25;67.44;92639.56;5091654;28;20063;-83
2021/05/02 01:06:02;;;;;;;3.58;2.22;;;;;;;17.26;66.25;92634.09;5091457;28;20048;-83
2021/05/02 01:08:29;;;;;;;4.00;1.48;;;;;;;17.29;66.07;92623.19;5091810;28;20040;-84
2021/05/02 01:10:59;;;;;;;8.40;1.58;;;;;;;17.44;64.72;92634.53;5090589;28;20407;-83
2021/05/02 01:13:30;;;;;;;3.70;1.52;;;;;;;17.50;64.70;92641.28;5091121;28;20044;-83
2021/05/02 01:15:58;;;;;;;6.70;1.70;;;;;;;17.57;64.13;92628.00;5091315;28;20048;-83
2021/05/02 01:18:26;;;;;;;2.53;1.17;;;;;;;17.65;63.79;92632.63;5091348;28;20040;-83
2021/05/02 01:20:52;;;;;;;8.57;1.83;;;;;;;17.69;64.06;92632.88;5091044;28;20411;-83
2021/05/02 01:23:24;;;;;;;12.02;1.88;;;;;;;17.66;63.53;92631.59;5091026;28;20066;-83
2021/05/02 01:25:53;;;;;;;4.82;1.70;;;;;;;17.77;63.51;92637.50;5091050;28;20055;-84
2021/05/02 01:28:19;;;;;;;5.60;1.50;;;;;;;17.82;63.23;92629.66;5091302;28;20063;-83
2021/05/02 01:30:46;;;;;;;8.38;2.13;;;;;;;17.93;62.60;92616.63;5091059;28;20148;-84
2021/05/02 01:33:13;;;;;;;9.55;1.70;;;;;;;17.89;62.72;92601.59;5090611;28;20044;-83
2021/05/02 01:35:39;;;;;;;2.90;1.40;;;;;;;17.98;63.61;92619.19;5090883;28;20491;-83
2021/05/02 01:38:06;;;;;;;7.10;2.50;;;;;;;18.01;62.98;92629.06;5090913;28;20101;-83
2021/05/02 01:40:33;;;;;;;7.93;1.42;;;;;;;18.02;63.36;92625.41;5090720;28;20048;-83
2021/05/02 01:43:00;;;;;;;7.88;2.88;;;;;;;17.98;63.58;92627.00;5090841;28;20052;-83
2021/05/02 01:45:26;;;;;;;4.28;1.75;;;;;;;17.85;63.39;92616.16;5090603;28;20043;-83
2021/05/02 01:47:59;;;;;;;4.28;1.10;;;;;;;18.01;62.93;92626.47;5090425;28;20047;-83
2021/05/02 01:50:27;;;;;;;4.93;1.40;;;;;;;17.92;62.39;92613.28;5090592;28;20067;-83
2021/05/02 01:52:55;;;;;;;7.22;2.05;;;;;;;17.92;62.84;92621.06;5090211;28;20055;-83
2021/05/02 01:55:22;;;;;;;6.43;1.92;;;;;;;18.09;62.93;92644.09;5090651;28;20403;-83
2021/05/02 01:57:51;;;;;;;7.65;1.85;;;;;;;18.06;62.98;92634.25;5090495;28;20044;-83
2021/05/02 02:00:28;;;;;;;2.60;0.88;;;;;;;18.02;62.75;92644.34;5090546;28;20431;-84
2021/05/02 02:02:58;;;;;;;5.07;2.17;;;;;;;18.07;62.32;92648.78;5090081;28;20062;-83
2021/05/02 02:05:25;;;;;;;4.35;1.67;;;;;;;18.07;62.37;92650.59;5090300;28;20056;-83
2021/05/02 02:07:52;;;;;;;5.15;2.22;;;;;;;18.11;62.78;92652.41;5090151;28;20055;-83
2021/05/02 02:10:21;;;;;;;3.58;1.70;;;;;;;18.13;62.30;92663.31;5090624;28;20047;-83
2021/05/02 02:12:49;;;;;;;3.80;1.33;;;;;;;18.13;62.31;92659.91;5090118;28;20506;-84
2021/05/02 02:15:16;;;;;;;6.28;1.55;;;;;;;18.15;62.47;92657.84;5090532;28;20441;-84
2021/05/02 02:17:43;;;;;;;6.05;2.13;;;;;;;18.08;62.21;92632.16;5089797;28;20110;-83
2021/05/02 02:20:12;;;;;;;5.78;1.88;;;;;;;18.14;62.01;92649.25;5089773;28;20487;-83
2021/05/02 02:22:39;;;;;;;3.40;1.40;;;;;;;18.22;61.86;92650.50;5090051;28;20044;-84
2021/05/02 02:25:07;;;;;;;8.75;1.85;;;;;;;18.26;61.75;92650.75;5090058;28;20062;-84
2021/05/02 02:27:34;;;;;;;3.30;1.48;;;;;;;18.10;62.08;92635.25;5089585;28;20059;-84
2021/05/02 02:30:05;;;;;;;6.60;1.40;;;;;;;18.00;62.16;92607.47;5089936;28;20063;-83
2021/05/02 02:32:34;;;;;;;3.03;0.82;;;;;;;18.18;62.34;92646.91;5089745;28;20055;-84
2021/05/02 02:35:04;;;;;;;5.13;2.08;;;;;;;18.17;61.92;92637.53;5089693;28;20052;-84
2021/05/02 02:37:31;;;;;;;4.00;1.45;;;;;;;18.14;62.16;92638.88;5089455;28;20044;-83
2021/05/02 02:40:00;;;;;;;3.00;1.02;;;;;;;18.09;62.25;92636.28;5089528;28;20043;-85
2021/05/02 02:42:28;;;;;;;7.03;1.75;;;;;;;17.86;62.32;92614.31;5089464;28;20499;-84
2021/05/02 02:44:56;;;;;;;6.47;1.67;;;;;;;17.97;62.59;92639.19;5089572;28;20048;-83
2021/05/02 02:47:29;;;;;;;5.80;2.33;;;;;;;17.90;62.97;92626.53;5089320;28;20048;-83
2021/05/02 02:49:58;;;;;;;2.70;1.25;;;;;;;17.84;63.02;92613.81;5089799;28;20040;-84
2021/05/02 02:52:26;;;;;;;14.57;2.05;;;;;;;17.91;63.19;92629.88;5089297;28;20515;-84
2021/05/02 02:55:03;;;;;;;8.88;2.08;;;;;;;17.83;63.04;92636.41;5089557;28;20040;-84
2021/05/02 02:57:32;;;;;;;5.03;1.45;;;;;;;17.65;63.43;92603.28;5089584;28;20052;-85
2021/05/02 03:00:02;;;;;;;10.10;3.80;;;;;;;17.72;63.48;92616.75;5089250;28;20051;-84
2021/05/02 03:02:31;;;;;;;7.60;1.90;;;;;;;17.72;63.52;92616.75;5089623;28;20557;-84
2021/05/02 03:04:59;;;;;;;9.95;2.30;;;;;;;17.69;64.00;92622.47;5089553;28;20066;-85
2021/05/02 03:07:26;;;;;;;6.50;2.33;;;;;;;17.58;64.60;92612.16;5089131;28;20052;-85
2021/05/02 03:09:52;;;;;;;10.05;2.88;;;;;;;17.59;64.93;92620.72;5089327;28;20113;-83
2021/05/02 03:12:22;;;;;;;7.47;1.73;;;;;;;17.45;65.29;92620.53;5089261;28;20089;-83
2021/05/02 03:14:50;;;;;;;4.93;1.90;;;;;;;17.49;65.27;92618.94;5089480;28;20048;-83
2021/05/02 03:17:20;;;;;;;8.88;2.67;;;;;;;17.40;65.48;92607.56;5089065;28;20054;-83
2021/05/02 03:19:52;;;;;;;5.22;1.58;;;;;;;17.39;65.00;92598.22;5089651;28;20044;-83
2021/05/02 03:22:30;;;;;;;3.78;1.40;;;;;;;17.35;65.39;92582.41;5089430;28;20469;-85
2021/05/02 03:25:01;;;;;;;7.53;1.48;;;;;;;17.49;65.11;92611.16;5088996;28;20063;-85
2021/05/02 03:27:34;;;;;;;6.20;1.63;;;;;;;17.50;65.13;92623.09;5089039;28;20044;-86
2021/05/02 03:30:07;;;;;;;8.80;1.92;;;;;;;17.55;65.23;92617.09;5089172;28;20514;-85
2021/05/02 03:32:35;;;;;;;4.82;1.63;;;;;;;17.57;64.96;92620.97;5089114;28;20498;-85
2021/05/02 03:35:06;;;;;;;6.93;1.95;;;;;;;17.57;64.72;92613.19;5093455;28;20063;-85
2021/05/02 03:37:34;;;;;;;2.70;1.20;;;;;;;17.44;64.70;92590.41;5092834;28;20052;-85
2021/05/02 03:40:02;;;;;;;5.40;1.85;;;;;;;17.61;64.94;92618.63;5093163;28;20392;-85
2021/05/02 03:42:28;;;;;;;11.52;1.52;;;;;;;17.51;64.92;92609.06;5093149;28;20040;-84
2021/05/02 03:44:55;;;;;;;6.00;1.42;;;;;;;17.66;65.14;92638.59;5092644;28;20044;-86
2021/05/02 03:47:21;;;;;;;4.07;1.80;;;;;;;17.66;65.51;92639.38;5092861;28;20150;-86
2021/05/02 03:49:48;;;;;;;8.18;1.35;;;;;;;17.52;65.24;92621.00;5092829;28;20089;-84
2021/05/02 03:52:16;;;;;;;5.00;1.83;;;;;;;17.60;64.97;92648.25;5092534;28;20609;-84
2021/05/02 03:54:42;;;;;;;6.80;2.00;;;;;;;17.45;65.18;92629.09;5092638;28;20081;-84
2021/05/02 03:57:09;;;;;;;6.63;1.48;;;;;;;17.57;65.43;92633.97;5094289;28;20059;-84
2021/05/02 03:59:35;;;;;;;3.10;1.40;;;;;;;17.38;65.10;92615.63;5109779;28;20513;-84
2021/05/02 04:02:04;;;;;;;7.63;2.47;;;;;;;17.62;65.15;92636.53;5099245;28;20047;-84
2021/05/02 04:04:32;;;;;;;5.28;2.13;;;;;;;17.65;65.00;92642.25;5092488;28;20048;-84
2021/05/02 04:06:59;;;;;;;6.22;1.85;;;;;;;17.66;64.66;92628.19;5108073;28;20723;-84
2021/05/02 04:09:26;;;;;;;9.05;1.52;;;;;;;17.63;65.18;92614.72;5107851;28;20044;-84
2021/05/02 04:11:53;;;;;;;3.72;2.47;;;;;;;17.78;64.62;92623.47;5100592;28;21224;-82
2021/05/02 04:14:19;;;;;;;4.45;2.22;;;;;;;17.83;64.45;92612.28;5101987;28;20066;-84
2021/05/02 04:16:54;;;;;;;4.97;1.40;;;;;;;17.88;64.63;92615.59;5103336;28;20400;-83
2021/05/02 04:19:20;;;;;;;7.57;1.93;;;;;;;17.92;64.12;92617.69;5102569;28;20044;-82
2021/05/02 04:21:47;;;;;;;7.53;2.05;;;;;;;18.00;63.68;92630.09;5101467;27;20040;-82
2021/05/02 04:24:13;;;;;;;5.72;2.15;;;;;;;18.05;63.61;92624.84;5100078;28;20052;-82
2021/05/02 04:26:43;;;;;;;8.07;1.98;;;;;;;18.12;63.62;92616.78;5101135;28;20046;-82
2021/05/02 04:29:09;;;;;;;5.43;1.50;;;;;;;18.16;63.15;92608.16;5108930;28;20526;-82
2021/05/02 04:31:36;;;;;;;10.73;1.75;;;;;;;18.29;62.99;92621.63;5098107;28;20036;-81
2021/05/02 04:34:02;;;;;;;11.43;1.67;;;;;;;18.28;62.35;92607.81;5093525;28;20047;-82
2021/05/02 04:36:29;;;;;;;3.60;1.33;;;;;;;18.39;62.33;92605.94;5112697;28;20097;-82
2021/05/02 04:38:55;;;;;;;4.63;1.77;;;;;;;18.64;61.81;92617.16;5112469;28;20097;-82
2021/05/02 04:41:21;;;;;;;4.78;1.95;;;;;;;18.79;60.99;92616.22;5111044;28;20050;-82
2021/05/02 04:43:48;;;;;;;7.30;2.15;;;;;;;18.93;60.73;92631.22;5099967;28;20055;-83
2021/05/02 04:46:15;;;;;;;2.83;1.42;;;;;;;19.08;60.13;92625.84;5108624;28;20047;-83
2021/05/02 04:48:42;;;;;;;5.35;2.22;;;;;;;19.23;59.52;92621.53;5112423;28;20048;-83
2021/05/02 04:51:09;;;;;;;8.63;2.15;;;;;;;19.17;59.22;92594.00;5111960;28;20104;-86
2021/05/02 04:53:36;;;;;;;8.45;1.65;;;;;;;19.49;58.87;92600.41;5112097;28;20039;-85
2021/05/02 04:56:03;;;;;;;6.72;1.40;;;;;;;19.69;58.27;92603.78;5112097;27;20055;-84
2021/05/02 04:58:29;;;;;;;11.73;2.30;;;;;;;19.84;57.92;92597.59;5097616;28;20052;-84
2021/05/02 05:00:56;;;;;;;6.68;1.85;;;;;;;19.90;57.40;92593.84;5087948;28;20059;-84
2021/05/02 05:03:23;;;;;;;7.90;3.53;;;;;;;19.98;56.65;92582.03;5089503;28;20055;-83
2021/05/02 05:05:49;;;;;;;10.38;2.17;;;;;;;20.27;55.87;92605.31;5090850;28;20055;-84
2021/05/02 05:08:15;;;;;;;6.50;2.70;;;;;;;20.45;55.76;92600.34;5090996;28;20055;-87
2021/05/02 05:10:41;;;;;;;4.10;1.40;;;;;;;20.59;55.66;92605.59;5104132;27;20078;-85
2021/05/02 05:13:08;;;;;;;6.25;1.92;;;;;;;20.52;54.80;92585.13;5111504;28;20044;-84
2021/05/02 05:15:34;;;;;;;4.97;1.70;;;;;;;20.69;54.64;92608.03;5111528;27;20449;-86
2021/05/02 05:18:01;;;;;;;9.23;1.95;;;;;;;20.78;54.41;92608.16;5111535;28;20047;-86
2021/05/02 05:20:28;;;;;;;5.38;1.77;;;;;;;20.91;54.33;92619.69;5111395;28;20091;-87
2021/05/02 05:22:54;;;;;;;11.35;2.38;;;;;;;21.05;54.05;92632.75;5091853;28;20491;-86
2021/05/02 05:25:20;;;;;;;5.90;2.05;;;;;;;21.23;53.83;92631.13;5102436;28;20542;-86
2021/05/02 05:27:47;;;;;;;4.00;1.42;;;;;;;21.21;51.67;92611.59;5111374;28;20047;-89
2021/05/02 05:30:14;;;;;;;9.50;2.03;;;;;;;21.20;51.70;92594.38;5111657;28;20040;-86
2021/05/02 05:32:41;;;;;;;5.40;2.13;;;;;;;21.44;51.07;92609.06;5111686;28;20051;-85
2021/05/02 05:35:10;;;;;;;4.63;1.20;;;;;;;21.76;49.98;92633.53;5111420;28;20062;-85
2021/05/02 05:37:37;;;;;;;8.02;1.73;;;;;;;22.00;50.09;92638.50;5112378;28;20052;-85
2021/05/02 05:40:04;;;;;;;7.30;1.15;;;;;;;22.12;49.23;92616.31;5110864;28;20048;-86
2021/05/02 05:42:30;;;;;;;8.48;1.33;;;;;;;22.54;48.89;92627.38;5110663;28;20537;-87
2021/05/02 05:44:57;;;;;;;4.57;1.30;;;;;;;22.53;47.26;92594.41;5110739;28;20044;-87
2021/05/02 05:47:25;;;;;;;5.10;1.50;;;;;;;22.83;46.14;92584.25;5110855;28;20055;-87
2021/05/02 05:49:52;;;;;;;4.13;1.45;;;;;;;23.49;45.56;92618.69;5110702;28;20047;-86
2021/05/02 05:52:19;;;;;;;7.47;2.25;;;;;;;23.64;44.20;92619.34;5110447;28;20047;-87
2021/05/02 05:54:45;;;;;;;5.63;1.40;;;;;;;23.46;44.17;92599.09;5106345;28;20101;-86
2021/05/02 05:57:12;;;;;;;5.45;1.83;;;;;;;23.40;43.59;92620.50;5109443;28;20048;-89
2021/05/02 05:59:38;;;;;;;2.92;1.13;;;;;;;22.85;44.11;92559.63;5097466;28;20052;-88
2021/05/02 06:02:04;;;;;;;3.53;1.63;;;;;;;22.90;43.07;92580.41;5090587;28;20105;-88
2021/05/02 06:04:31;;;;;;;12.70;1.77;;;;;;;23.11;43.95;92629.66;5107949;28;20051;-88
2021/05/02 06:06:57;;;;;;;3.67;1.35;;;;;;;22.91;44.23;92616.03;5110162;28;20059;-88
2021/05/02 06:09:24;;;;;;;5.75;1.33;;;;;;;22.90;43.90;92628.34;5100186;28;20418;-89
2021/05/02 06:11:52;;;;;;;4.18;1.50;;;;;;;22.83;44.06;92626.13;5110074;28;20626;-86
2021/05/02 06:14:23;;;;;;;4.03;1.45;;;;;;;22.86;44.74;92630.00;5110337;28;20083;-86
2021/05/02 06:16:49;;;;;;;3.63;1.20;;;;;;;22.61;45.02;92590.31;5110711;28;20051;-85
2021/05/02 06:19:15;;;;;;;3.67;1.30;;;;;;;22.76;45.13;92617.16;5111175;28;20052;-86
2021/05/02 06:21:42;;;;;;;5.28;1.55;;;;;;;22.57;45.15;92575.50;5101780;28;20098;-86
2021/05/02 06:24:09;;;;;;;4.38;1.65;;;;;;;22.79;44.97;92604.25;5090669;28;20047;-89
2021/05/02 06:26:36;;;;;;;6.60;1.70;;;;;;;22.80;45.21;92597.16;5100853;28;20509;-86
2021/05/02 06:29:03;;;;;;;8.55;1.05;;;;;;;23.12;45.19;92637.22;5109823;28;20075;-85
2021/05/02 06:31:29;;;;;;;7.78;2.47;;;;;;;23.19;44.52;92642.78;5109805;28;20059;-83
2021/05/02 06:33:55;;;;;;;5.78;1.30;;;;;;;23.01;44.30;92623.59;5109968;28;20040;-90
2021/05/02 06:36:22;;;;;;;5.97;1.75;;;;;;;22.91;43.56;92629.88;5110222;28;20112;-85
2021/05/02 06:38:48;;;;;;;5.53;1.65;;;;;;;22.88;44.13;92609.53;5109791;28;20054;-88
2021/05/02 06:41:17;;;;;;;3.25;0.90;;;;;;;22.53;44.33;92549.16;5109439;28;20043;-86
2021/05/02 06:43:44;;;;;;;9.43;1.88;;;;;;;22.51;44.22;92543.41;5110896;28;20044;-86
2021/05/02 06:46:27;;;;;;;5.13;1.63;;;;;;;23.39;44.21;92634.69;5111706;27;20528;-85
2021/05/02 06:48:55;;;;;;;6.90;1.35;;;;;;;23.44;44.30;92613.59;5110357;28;20047;-86
2021/05/02 06:51:21;;;;;;;7.20;1.50;;;;;;;23.51;42.81;92623.63;5110301;28;20052;-85
2021/05/02 06:54:05;;;;;;;4.85;1.45;;;;;;;23.12;43.48;92578.78;5110292;28;20070;-86
2021/05/02 06:56:31;;;;;;;6.75;1.67;;;;;;;23.37;43.76;92629.00;5110259;28;20051;-86
2021/05/02 06:58:58;;;;;;;3.17;1.48;;;;;;;23.08;43.74;92587.28;5110224;28;20057;-86
2021/05/02 07:01:26;;;;;;;2.60;0.90;;;;;;;23.13;43.98;92596.06;5110063;28;20495;-87
2021/05/02 07:03:52;;;;;;;12.50;1.75;;;;;;;23.51;43.92;92623.63;5110069;28;20144;-86
2021/05/02 07:06:19;;;;;;;5.53;1.42;;;;;;;23.46;44.53;92587.84;5110250;28;20048;-85
2021/05/02 07:08:47;;;;;;;5.13;1.25;;;;;;;23.75;44.32;92623.97;5109741;28;20055;-85
2021/05/02 07:11:25;;;;;;;7.70;1.20;;;;;;;23.78;44.56;92612.09;5109599;28;20043;-86
2021/05/02 07:13:52;;;;;;;5.68;1.30;;;;;;;24.09;43.63;92636.69;5108592;28;20051;-88
2021/05/02 07:16:20;;;;;;;3.22;1.45;;;;;;;24.37;43.99;92639.00;5109647;28;20410;-86
2021/05/02 07:18:47;;;;;;;5.43;1.77;;;;;;;24.63;42.48;92654.72;5108990;28;20521;-90
2021/05/02 07:21:16;;;;;;;8.45;1.45;;;;;;;24.37;41.63;92600.41;5109257;28;20766;-84
2021/05/02 07:23:46;;;;;;;6.43;1.40;;;;;;;24.62;41.05;92653.16;5109263;28;20047;-86
2021/05/02 07:26:13;;;;;;;7.65;2.40;;;;;;;24.24;41.35;92627.56;5109044;28;20517;-85
2021/05/02 07:28:39;;;;;;;61.53;21.58;;;;;;;24.39;40.72;92665.72;5109572;28;20044;-85
2021/05/02 07:31:05;;;;;;;12.23;3.63;;;;;;;24.40;41.41;92670.63;5109297;28;20049;-86
2021/05/02 07:33:33;;;;;;;7.78;2.10;;;;;;;24.31;41.97;92685.63;5109087;28;21173;-85
2021/05/02 07:35:59;;;;;;;6.93;3.22;;;;;;;24.34;41.89;92686.88;5109248;28;20054;-85
2021/05/02 07:38:27;;;;;;;7.20;3.25;;;;;;;24.27;42.27;92684.69;5109072;28;20077;-85
2021/05/02 07:40:56;;;;;;;3.47;1.77;;;;;;;24.29;42.27;92691.19;5108921;28;20048;-87
2021/05/02 07:43:22;;;;;;;4.57;2.10;;;;;;;24.22;42.44;92677.75;5109370;28;20047;-85
2021/05/02 07:45:49;;;;;;;4.57;1.50;;;;;;;24.34;42.16;92681.63;5108745;28;20563;-85
2021/05/02 07:48:15;;;;;;;9.07;2.92;;;;;;;24.48;42.13;92686.72;5108813;28;20056;-85
2021/05/02 07:50:43;;;;;;;4.57;1.77;;;;;;;24.57;42.25;92692.72;5108963;28;20490;-86
2021/05/02 07:53:09;;;;;;;6.28;2.20;;;;;;;24.33;41.97;92664.31;5109525;28;20129;-87
2021/05/02 07:55:36;;;;;;;10.70;3.78;;;;;;;24.53;41.91;92699.69;5111578;28;20050;-84
2021/05/02 07:58:03;;;;;;;4.10;1.80;;;;;;;24.51;41.80;92696.59;5109428;28;20047;-86
2021/05/02 08:00:29;;;;;;;5.85;1.48;;;;;;;24.29;41.86;92656.28;5109210;28;20050;-86
2021/05/02 08:02:56;;;;;;;7.45;2.58;;;;;;;24.42;41.08;92686.09;5102279;28;20050;-86
2021/05/02 08:05:25;;;;;;;6.30;2.05;;;;;;;24.31;41.69;92669.88;5088852;28;20070;-86
2021/05/02 08:07:52;;;;;;;4.85;2.13;;;;;;;24.36;41.61;92688.09;5088512;28;20082;-86
2021/05/02 08:10:20;;;;;;;12.18;1.85;;;;;;;24.65;41.98;92696.41;5088600;28;20044;-85
2021/05/02 08:12:46;;;;;;;4.63;1.95;;;;;;;24.80;40.72;92682.03;5100162;28;20044;-85
2021/05/02 08:15:13;;;;;;;6.45;1.85;;;;;;;25.05;40.87;92701.47;5108798;28;20410;-85
2021/05/02 08:17:39;;;;;;;7.40;2.25;;;;;;;25.18;40.55;92693.72;5109159;28;20392;-86
2021/05/02 08:20:08;;;;;;;3.80;1.38;;;;;;;25.53;40.43;92708.56;5111793;28;20112;-87
2021/05/02 08:22:35;;;;;;;4.57;1.35;;;;;;;25.70;39.03;92711.19;5112547;27;20043;-84
2021/05/02 08:25:12;;;;;;;11.48;1.40;;;;;;;25.84;39.18;92712.81;5112433;28;20453;-87
2021/05/02 08:27:38;;;;;;;8.23;2.00;;;;;;;25.88;38.75;92682.16;5112925;28;20048;-86
2021/05/02 08:30:06;;;;;;;4.65;1.50;;;;;;;26.35;38.30;92699.66;5112642;28;20047;-86
2021/05/02 08:32:32;;;;;;;4.97;2.20;;;;;;;26.70;37.96;92706.50;5112438;28;20089;-86
2021/05/02 08:35:01;;;;;;;5.07;1.58;;;;;;;26.93;37.86;92692.97;5112539;28;20459;-86
2021/05/02 08:37:28;;;;;;;6.32;1.35;;;;;;;26.99;37.32;92654.03;5112668;28;20078;-88
2021/05/02 08:39:54;;;;;;;9.93;1.88;;;;;;;27.26;36.67;92679.00;5112390;28;20048;-88
2021/05/02 08:42:21;;;;;;;4.82;0.90;;;;;;;27.36;35.01;92693.63;5112181;28;20080;-86
2021/05/02 08:44:48;;;;;;;7.88;1.80;;;;;;;27.45;36.07;92693.53;5112268;28;20039;-86
2021/05/02 08:47:14;;;;;;;5.55;1.80;;;;;;;27.31;35.65;92681.41;5111737;28;20488;-87
2021/05/02 08:49:41;;;;;;;2.88;0.88;;;;;;;26.99;34.80;92625.03;5111972;28;20530;-85
2021/05/02 08:52:08;;;;;;;5.47;1.60;;;;;;;27.27;34.27;92659.47;5111814;28;20624;-87
2021/05/02 08:54:34;;;;;;;7.03;1.58;;;;;;;27.12;34.61;92642.41;5111860;28;20093;-87
2021/05/02 08:57:01;;;;;;;10.45;2.20;;;;;;;27.68;34.48;92680.69;5097907;28;20494;-87
2021/05/02 08:59:31;;;;;;;4.53;1.55;;;;;;;27.93;34.35;92685.94;5110246;28;20523;-87
2021/05/02 09:01:58;;;;;;;10.20;3.25;;;;;;;28.07;31.75;92661.84;5111603;28;20135;-87
2021/05/02 09:04:26;;;;;;;7.43;2.38;;;;;;;28.43;33.47;92671.88;5112961;28;20059;-86
2021/05/02 09:06:53;;;;;;;6.13;1.77;;;;;;;28.83;32.50;92668.41;5111177;28;20056;-86
2021/05/02 09:09:19;;;;;;;9.68;2.35;;;;;;;28.94;32.71;92623.78;5111768;28;20054;-87
2021/05/02 09:11:47;;;;;;;10.55;1.90;;;;;;;29.16;31.83;92653.41;5111626;28;20047;-85
2021/05/02 09:14:27;;;;;;;6.90;1.30;;;;;;;28.97;31.62;92638.19;5111382;27;20048;-88
2021/05/02 09:16:56;;;;;;;4.40;2.00;;;;;;;29.27;30.92;92643.06;5111366;28;20078;-86
2021/05/02 09:19:24;;;;;;;5.75;1.77;;;;;;;29.47;31.63;92642.03;5111439;28;20483;-88
2021/05/02 09:21:52;;;;;;;4.78;1.05;;;;;;;29.73;31.00;92637.31;5111304;28;20552;-88
2021/05/02 09:24:23;;;;;;;5.18;1.40;;;;;;;29.97;30.13;92652.22;5111274;28;20044;-88
2021/05/02 09:27:05;;;;;;;6.50;2.65;;;;;;;29.64;29.65;92618.22;5111041;28;20518;-90
2021/05/02 09:29:32;;;;;;;8.90;2.03;;;;;;;29.91;29.61;92652.81;5111096;28;20498;-88
2021/05/02 09:32:00;;;;;;;7.55;1.60;;;;;;;29.97;30.63;92609.84;5111550;28;20499;-88
2021/05/02 09:34:27;;;;;;;4.07;2.08;;;;;;;30.37;30.40;92649.63;5111173;28;20475;-91
2021/05/02 09:36:56;;;;;;;6.80;1.45;;;;;;;29.96;29.95;92581.06;5107444;28;20518;-91
2021/05/02 09:39:37;;;;;;;6.10;1.73;;;;;;;30.10;29.51;92599.91;5110656;28;20429;-88
2021/05/02 09:42:05;;;;;;;10.45;2.35;;;;;;;29.91;28.91;92626.34;5111659;28;20450;-90
2021/05/02 09:44:43;;;;;;;6.20;2.25;;;;;;;29.26;29.99;92602.63;5110242;28;20054;-88
2021/05/02 09:47:26;;;;;;;5.38;1.70;;;;;;;29.47;30.34;92620.09;5110535;28;20447;-88
2021/05/02 09:50:17;;;;;;;8.93;2.88;;;;;;;29.41;31.04;92629.41;5110171;28;20051;-87
2021/05/02 09:52:52;;;;;;;7.00;1.20;;;;;;;29.61;30.16;92617.03;5110746;28;20043;-87
2021/05/02 09:55:28;;;;;;;;;;;;;;;29.58;30.68;92623.00;5106945;28;20044;-89
2021/05/02 09:57:56;;;;;;;6.88;1.55;;;;;;;29.58;30.93;92596.56;5090845;28;19920;-87
2021/05/02 10:00:30;;;;;;;7.13;2.28;;;;;;;29.81;30.83;92617.81;5091203;28;20056;-88
2021/05/02 10:02:59;;;;;;;5.75;1.17;;;;;;;29.29;31.62;92612.50;5091062;28;20055;-88
2021/05/02 10:05:26;;;;;;;7.18;1.85;;;;;;;29.56;29.96;92614.63;5090255;28;20094;-88
2021/05/02 10:07:53;;;;;;;4.72;1.13;;;;;;;29.56;30.32;92562.50;5090227;28;20078;-87
2021/05/02 10:10:21;;;;;;;2.67;0.95;;;;;;;30.28;31.39;92604.78;5090456;28;20070;-88
2021/05/02 10:13:08;;;;;;;5.28;1.75;;;;;;;29.96;28.98;92563.31;5091515;28;20044;-87
2021/05/02 10:15:34;;;;;;;2.83;1.17;;;;;;;30.31;28.18;92606.72;5090232;28;20066;-87
2021/05/02 10:18:02;;;;;;;5.80;1.70;;;;;;;30.12;28.45;92588.97;5090311;28;20056;-87
2021/05/02 10:20:28;;;;;;;3.83;0.98;;;;;;;30.17;28.08;92587.94;5089912;28;20138;-87
2021/05/02 10:22:58;;;;;;;9.10;1.30;;;;;;;29.97;26.54;92535.72;5090830;28;20044;-89
2021/05/02 10:28:59;;;;;;;9.38;2.30;;;;;;;30.91;25.69;92594.19;5045702;28;20467;-90
2021/05/02 10:31:28;;;;;;;2.97;1.27;;;;;;;31.19;26.06;92590.47;5056457;28;20058;-89
2021/05/02 10:34:02;;;;;;;3.33;0.95;;;;;;;30.94;25.40;92535.13;5110226;28;20044;-93
2021/05/02 10:36:29;;;;;;;9.43;1.33;;;;;;;31.22;24.49;92599.56;5110316;28;20077;-89
2021/05/02 10:38:56;;;;;;;4.93;1.50;;;;;;;31.22;24.04;92591.59;5110272;28;20048;-89
2021/05/02 10:41:32;;;;;;;5.78;1.27;;;;;;;31.12;24.79;92566.47;5111389;28;20043;-90
2021/05/02 10:44:20;;;;;;;4.88;1.30;;;;;;;31.19;24.32;92607.13;5109994;28;20138;-91
2021/05/02 10:46:50;;;;;;;8.02;1.85;;;;;;;31.28;24.14;92592.91;5090335;28;20122;-92
2021/05/02 10:49:55;;;;;;;5.57;1.35;;;;;;;31.62;24.71;92585.03;5089597;28;20134;-91
2021/05/02 10:52:33;;;;;;;4.03;2.63;;;;;;;32.04;25.07;92601.91;5089645;28;20418;-88
2021/05/02 10:55:17;;;;;;;5.20;1.48;;;;;;;32.03;24.59;92563.19;5089728;28;20044;-89
2021/05/02 10:57:44;;;;;;;7.20;2.08;;;;;;;31.97;24.06;92519.47;5089378;28;20506;-91
2021/05/02 11:00:12;;;;;;;3.83;1.35;;;;;;;31.65;23.38;92512.63;5089203;28;20597;-94
2021/05/02 11:02:47;;;;;;;8.50;0.80;;;;;;;32.03;22.31;92567.72;5094148;28;20040;-93
2021/05/02 11:05:22;;;;;;;9.82;1.35;;;;;;;31.39;23.85;92500.16;5110631;28;20043;-92
2021/05/02 11:07:58;;;;;;;4.68;1.42;;;;;;;31.48;22.74;92481.31;5110723;28;20569;-89
2021/05/02 11:10:24;;;;;;;6.85;1.67;;;;;;;31.74;24.04;92493.75;5094168;28;20052;-90
2021/05/02 11:12:53;;;;;;;2.05;0.85;;;;;;;32.43;22.78;92554.91;5105332;28;20065;-89
2021/05/02 11:15:52;;;;;;;2.80;0.73;;;;;;;32.17;22.15;92559.94;5110542;28;20052;-93
2021/05/02 11:18:37;;;;;;;3.20;1.20;;;;;;;31.92;22.67;92544.47;5111378;28;20058;-95
2021/05/02 11:21:04;;;;;;;17.15;0.77;;;;;;;31.83;22.32;92565.19;5111839;28;20048;-90
2021/05/02 11:23:58;;;;;;;8.43;1.30;;;;;;;31.29;22.01;92454.56;5110883;28;20052;-91
2021/05/02 11:26:55;;;;;;;6.70;0.90;;;;;;;31.90;22.65;92564.53;5067011;28;20531;-92
2021/05/02 11:29:22;;;;;;;4.05;1.48;;;;;;;31.99;23.03;92544.53;5081270;28;20083;-89
2021/05/02 11:32:16;;;;;;;5.13;1.40;;;;;;;31.57;21.44;92476.50;5107115;28;20188;-94
2021/05/02 11:34:53;;;;;;;3.33;0.80;;;;;;;31.83;21.88;92509.41;5057711;28;20067;-90
2021/05/02 11:38:07;;;;;;;4.82;1.48;;;;;;;31.33;22.19;92436.06;5090240;28;20054;-93
2021/05/02 11:40:51;;;;;;;;;;;;;;;31.99;20.96;92514.56;5027898;28;20132;-88
2021/05/02 11:43:29;;;;;;;4.93;1.48;;;;;;;31.64;21.92;92489.88;5014312;28;20007;-92
2021/05/02 11:49:42;;;;;;;5.90;1.70;;;;;;;31.77;22.19;92489.63;4893012;29;20063;-89
2021/05/02 11:52:14;;;;;;;4.10;1.08;;;;;;;31.59;22.00;92458.31;4944119;28;20062;-96